Time;durP1;ratioP1;P1;durP2;ratioP2;P2;SDS_P1;SDS_P2;PMS_P1;PMS_P2;Temp;Humidity;BMP_temperature;BMP_pressure;BME280_temperature;BME280_humidity;BME280_pressure;Samples;Min_cycle;Max_cycle;Signal;HPM_P1;HPM_P2
2022/11/25 00:02:21;;;;;;;75.10;10.20;;;6.20;99.90;;;;;;5044976;28;20189;-88
2022/11/25 00:04:47;;;;;;;79.30;13.85;;;6.20;99.90;;;;;;5046723;28;20157;-89
2022/11/25 00:07:13;;;;;;;84.90;12.13;;;6.20;99.90;;;;;;5046610;28;20154;-89
2022/11/25 00:09:38;;;;;;;78.10;12.13;;;6.10;99.90;;;;;;5046104;28;20192;-89
2022/11/25 00:12:10;;;;;;;79.30;12.20;;;6.20;99.90;;;;;;5046278;28;20243;-89
2022/11/25 00:14:36;;;;;;;73.28;10.43;;;6.20;99.90;;;;;;5046743;28;20184;-88
2022/11/25 00:17:10;;;;;;;77.87;13.97;;;6.10;99.90;;;;;;5046076;28;20165;-89
2022/11/25 00:19:36;;;;;;;76.70;14.75;;;6.10;99.90;;;;;;5046340;28;20220;-88
2022/11/25 00:22:02;;;;;;;80.23;11.83;;;6.10;99.90;;;;;;5045951;28;20189;-88
2022/11/25 00:24:28;;;;;;;73.90;11.40;;;6.10;99.90;;;;;;5046294;28;20171;-88
2022/11/25 00:26:53;;;;;;;72.73;10.63;;;6.20;99.90;;;;;;5051003;28;20651;-89
2022/11/25 00:29:21;;;;;;;76.80;10.53;;;6.20;99.90;;;;;;5051178;28;20176;-89
2022/11/25 00:31:47;;;;;;;85.45;12.88;;;6.20;99.90;;;;;;5051636;28;20196;-89
2022/11/25 00:34:13;;;;;;;72.93;10.93;;;6.20;99.90;;;;;;5052632;28;20176;-89
2022/11/25 00:36:39;;;;;;;79.88;11.25;;;6.20;99.90;;;;;;5051253;28;20644;-88
2022/11/25 00:39:10;;;;;;;77.97;13.10;;;6.20;99.90;;;;;;5052015;28;20223;-89
2022/11/25 00:44:36;;;;;;;73.53;13.15;;;6.10;99.90;;;;;;5052429;28;20156;-89
2022/11/25 00:47:13;;;;;;;82.57;13.02;;;6.10;99.90;;;;;;5051769;28;20157;-88
2022/11/25 00:49:41;;;;;;;76.25;14.00;;;6.20;99.90;;;;;;5051239;28;20215;-88
2022/11/25 00:52:09;;;;;;;72.35;14.05;;;6.20;99.90;;;;;;5052180;28;20232;-89
2022/11/25 00:54:34;;;;;;;75.97;12.48;;;6.30;99.90;;;;;;5052146;28;20189;-87
2022/11/25 00:57:00;;;;;;;71.47;12.10;;;6.30;99.90;;;;;;5052280;28;20169;-89
2022/11/25 00:59:27;;;;;;;75.20;11.60;;;6.40;99.90;;;;;;5051334;28;20172;-88
2022/11/25 01:01:56;;;;;;;76.07;13.52;;;6.40;99.90;;;;;;5050790;28;20199;-88
2022/11/25 01:04:22;;;;;;;77.88;12.07;;;6.40;99.90;;;;;;5051141;28;20199;-89
2022/11/25 01:06:48;;;;;;;73.40;13.83;;;6.50;99.90;;;;;;5051346;28;20165;-89
2022/11/25 01:09:14;;;;;;;78.13;15.50;;;6.50;99.90;;;;;;5051382;28;20434;-89
2022/11/25 01:11:40;;;;;;;89.55;12.90;;;6.60;99.90;;;;;;5051882;28;20280;-89
2022/11/25 01:14:08;;;;;;;75.40;13.03;;;6.60;99.90;;;;;;5052011;28;20650;-89
2022/11/25 01:16:35;;;;;;;82.50;14.73;;;6.70;99.90;;;;;;5050947;28;20896;-88
2022/11/25 01:19:01;;;;;;;75.90;12.93;;;6.80;99.90;;;;;;5050961;28;20169;-88
2022/11/25 01:21:30;;;;;;;75.30;13.30;;;6.80;99.90;;;;;;5051996;28;20681;-89
2022/11/25 01:23:59;;;;;;;76.13;13.95;;;6.80;99.90;;;;;;5051277;28;20161;-89
2022/11/25 01:26:25;;;;;;;74.70;13.90;;;6.80;99.90;;;;;;5051557;28;20169;-88
2022/11/25 01:28:56;;;;;;;80.03;15.60;;;6.90;99.90;;;;;;5050886;28;20180;-88
2022/11/25 01:31:24;;;;;;;77.28;12.68;;;7.00;99.90;;;;;;5051459;28;20585;-89
2022/11/25 01:34:02;;;;;;;82.20;12.82;;;7.00;99.90;;;;;;5053534;28;20169;-88
2022/11/25 01:36:29;;;;;;;78.00;13.82;;;7.00;99.90;;;;;;5053233;28;20153;-88
2022/11/25 01:38:56;;;;;;;78.55;12.60;;;7.00;99.90;;;;;;5049200;28;20188;-88
2022/11/25 01:41:26;;;;;;;79.90;11.68;;;7.00;99.90;;;;;;5050083;28;20269;-89
2022/11/25 01:44:11;;;;;;;79.82;12.13;;;7.00;99.90;;;;;;5049718;28;20233;-89
2022/11/25 01:47:02;;;;;;;74.03;12.07;;;7.00;99.90;;;;;;5048303;28;20191;-89
2022/11/25 01:49:31;;;;;;;73.07;12.02;;;7.00;99.90;;;;;;5048454;28;20197;-89
2022/11/25 01:52:09;;;;;;;79.55;12.55;;;7.00;99.90;;;;;;5048714;28;20153;-88
2022/11/25 01:54:41;;;;;;;78.38;10.95;;;6.90;99.90;;;;;;5048707;28;20169;-89
2022/11/25 01:57:13;;;;;;;78.63;12.80;;;7.00;99.90;;;;;;5047797;28;20168;-88
2022/11/25 01:59:48;;;;;;;88.93;11.82;;;7.00;99.90;;;;;;5047975;28;20189;-88
2022/11/25 02:02:15;;;;;;;84.22;11.05;;;7.00;99.90;;;;;;5049906;28;20200;-89
2022/11/25 02:04:43;;;;;;;79.85;11.20;;;7.10;99.90;;;;;;5049321;28;20211;-89
2022/11/25 02:07:26;;;;;;;81.32;10.57;;;7.10;99.90;;;;;;5050309;28;20153;-89
2022/11/25 02:09:54;;;;;;;73.90;9.02;;;7.10;99.90;;;;;;5049354;28;20181;-88
2022/11/25 02:12:21;;;;;;;82.05;11.13;;;7.00;99.90;;;;;;5049075;28;20228;-88
2022/11/25 02:14:51;;;;;;;72.88;12.35;;;7.10;99.90;;;;;;5048962;28;20294;-88
2022/11/25 02:17:17;;;;;;;77.72;9.88;;;7.10;99.90;;;;;;5048715;28;20154;-89
2022/11/25 02:19:58;;;;;;;75.60;11.80;;;7.20;99.90;;;;;;5048731;28;20208;-88
2022/11/25 02:22:32;;;;;;;77.13;9.48;;;7.20;99.90;;;;;;5049278;28;20424;-89
2022/11/25 02:25:09;;;;;;;84.88;10.70;;;7.20;99.90;;;;;;5048691;28;20239;-87
2022/11/25 02:27:35;;;;;;;81.70;9.95;;;7.10;99.90;;;;;;5047835;28;20161;-88
2022/11/25 02:30:01;;;;;;;69.80;10.50;;;7.10;99.90;;;;;;5048124;28;20197;-88
2022/11/25 02:32:26;;;;;;;79.07;11.80;;;7.10;99.90;;;;;;5049279;28;20165;-88
2022/11/25 02:34:52;;;;;;;75.73;11.73;;;7.10;99.90;;;;;;5048979;28;20172;-89
2022/11/25 02:37:21;;;;;;;71.73;11.23;;;7.10;99.90;;;;;;5048990;28;20173;-89
2022/11/25 02:39:48;;;;;;;78.47;11.75;;;7.10;99.90;;;;;;5049134;28;20184;-89
2022/11/25 02:42:17;;;;;;;73.15;10.93;;;7.10;99.90;;;;;;5048284;28;20185;-89
2022/11/25 02:44:43;;;;;;;75.45;10.18;;;7.10;99.90;;;;;;5048310;28;20185;-88
2022/11/25 02:47:08;;;;;;;78.73;12.60;;;7.10;99.90;;;;;;5047703;28;20169;-89
2022/11/25 02:49:34;;;;;;;77.10;11.30;;;7.10;99.90;;;;;;5047207;28;20185;-89
2022/11/25 02:52:00;;;;;;;76.07;11.47;;;7.00;99.90;;;;;;5047452;28;20252;-89
2022/11/25 02:54:25;;;;;;;81.10;13.60;;;7.10;99.90;;;;;;5046914;28;20650;-89
2022/11/25 02:56:51;;;;;;;80.80;12.57;;;7.10;99.90;;;;;;5047775;28;20608;-89
2022/11/25 02:59:17;;;;;;;79.57;12.47;;;7.10;99.90;;;;;;5048239;28;20225;-88
2022/11/25 03:01:46;;;;;;;76.17;13.10;;;7.10;99.90;;;;;;5047520;28;20196;-88
2022/11/25 03:04:11;;;;;;;82.38;12.38;;;7.10;99.90;;;;;;5048253;28;20169;-89
2022/11/25 03:06:37;;;;;;;79.73;11.00;;;7.20;99.90;;;;;;5047895;28;20161;-89
2022/11/25 03:09:03;;;;;;;73.63;11.53;;;7.20;99.90;;;;;;5047430;28;20169;-89
2022/11/25 03:14:16;;;;;;;75.50;10.63;;;7.30;99.90;;;;;;5048037;28;20164;-89
2022/11/25 03:16:41;;;;;;;72.90;11.07;;;7.40;99.90;;;;;;5047732;28;20165;-89
2022/11/25 03:19:10;;;;;;;77.40;12.30;;;7.40;99.90;;;;;;5046706;28;20184;-89
2022/11/25 03:21:36;;;;;;;74.72;13.27;;;7.40;99.90;;;;;;5048300;28;20216;-89
2022/11/25 03:24:05;;;;;;;84.33;13.60;;;7.40;99.90;;;;;;5047116;28;20578;-89
2022/11/25 03:26:31;;;;;;;79.72;11.68;;;7.40;99.90;;;;;;5046684;28;20176;-89
2022/11/25 03:28:56;;;;;;;75.00;11.70;;;7.40;99.90;;;;;;5047092;28;20165;-88
2022/11/25 03:31:22;;;;;;;69.73;12.33;;;7.40;99.90;;;;;;5045653;28;20252;-89
2022/11/25 03:33:47;;;;;;;74.67;12.50;;;7.40;99.90;;;;;;5045351;28;20169;-89
2022/11/25 03:36:13;;;;;;;77.57;12.57;;;7.40;99.90;;;;;;5046925;28;20172;-89
2022/11/25 03:38:39;;;;;;;75.77;10.97;;;7.40;99.90;;;;;;5047115;28;20173;-89
2022/11/25 03:41:05;;;;;;;76.67;11.57;;;7.40;99.90;;;;;;5044928;28;20197;-88
2022/11/25 03:43:31;;;;;;;71.65;12.52;;;7.40;99.90;;;;;;5045569;28;20173;-88
2022/11/25 03:45:57;;;;;;;77.97;12.70;;;7.50;99.90;;;;;;5045653;28;20170;-88
2022/11/25 03:48:23;;;;;;;78.97;13.83;;;7.50;99.90;;;;;;5046646;28;20181;-89
2022/11/25 03:50:51;;;;;;;76.90;15.57;;;7.50;99.90;;;;;;5046390;28;20185;-89
2022/11/25 03:53:17;;;;;;;78.07;14.55;;;7.50;99.90;;;;;;5046810;28;20586;-89
2022/11/25 03:55:42;;;;;;;77.63;13.17;;;7.50;99.90;;;;;;5046146;28;20165;-88
2022/11/25 03:58:08;;;;;;;74.23;13.03;;;7.50;99.90;;;;;;5046052;28;20162;-88
2022/11/25 04:00:34;;;;;;;70.90;12.07;;;7.50;99.90;;;;;;5045554;28;20682;-89
2022/11/25 04:03:00;;;;;;;77.03;11.65;;;7.50;99.90;;;;;;5043865;28;20179;-89
2022/11/25 04:05:25;;;;;;;87.80;12.30;;;7.60;99.90;;;;;;5045785;28;20161;-88
2022/11/25 04:07:51;;;;;;;67.80;8.30;;;7.60;99.90;;;;;;5047110;28;20157;-89
2022/11/25 04:10:17;;;;;;;72.80;9.93;;;7.60;99.90;;;;;;5046472;28;20181;-88
2022/11/25 04:12:45;;;;;;;78.03;11.03;;;7.70;99.90;;;;;;5045512;28;20169;-89
2022/11/25 04:15:12;;;;;;;83.60;13.10;;;7.70;99.90;;;;;;5045719;28;20259;-89
2022/11/25 04:17:38;;;;;;;74.45;10.48;;;7.80;99.90;;;;;;5045081;28;20165;-89
2022/11/25 04:20:04;;;;;;;74.50;10.57;;;7.80;99.90;;;;;;5045899;28;20211;-89
2022/11/25 04:22:30;;;;;;;71.55;9.52;;;7.80;99.90;;;;;;5045130;28;20189;-88
2022/11/25 04:24:56;;;;;;;84.87;11.37;;;7.80;99.90;;;;;;5044563;28;20553;-89
2022/11/25 04:27:21;;;;;;;70.80;9.57;;;7.80;99.90;;;;;;5043930;28;20170;-89
2022/11/25 04:29:47;;;;;;;80.30;9.47;;;7.80;99.90;;;;;;5044235;28;20215;-88
2022/11/25 04:32:13;;;;;;;79.30;9.07;;;7.90;99.90;;;;;;5042533;28;20585;-89
2022/11/25 04:34:38;;;;;;;73.53;8.90;;;7.90;99.90;;;;;;5040998;28;20177;-88
2022/11/25 04:37:04;;;;;;;76.63;10.90;;;7.90;99.90;;;;;;5040628;28;20665;-88
2022/11/25 04:39:30;;;;;;;74.00;9.50;;;8.00;99.90;;;;;;5040357;28;20197;-88
2022/11/25 04:42:30;;;;;;;82.80;10.50;;;8.00;99.90;;;;;;5040398;28;20220;-89
2022/11/25 04:44:41;;;;;;;80.72;10.05;;;7.90;99.90;;;;;;5040459;28;20183;-89
2022/11/25 04:47:07;;;;;;;81.10;9.73;;;7.90;99.90;;;;;;5041174;28;20252;-88
2022/11/25 04:49:32;;;;;;;78.03;10.30;;;7.90;99.90;;;;;;5040521;28;20208;-88
2022/11/25 04:51:58;;;;;;;75.73;10.13;;;7.90;99.90;;;;;;5039911;28;20221;-88
2022/11/25 04:54:24;;;;;;;74.07;10.27;;;7.90;99.90;;;;;;5040753;28;20534;-88
2022/11/25 04:56:49;;;;;;;77.47;10.70;;;7.90;99.90;;;;;;5039536;28;20171;-87
2022/11/25 05:01:59;;;;;;;69.50;8.25;;;7.90;99.90;;;;;;5039711;28;20319;-88
2022/11/25 05:04:24;;;;;;;74.60;8.83;;;7.80;99.90;;;;;;5039447;28;20212;-88
2022/11/25 05:06:50;;;;;;;73.17;9.50;;;7.80;99.90;;;;;;5038283;28;20169;-88
2022/11/25 05:09:16;;;;;;;74.67;9.40;;;7.80;99.90;;;;;;5038661;28;20162;-88
2022/11/25 05:11:42;;;;;;;70.35;9.27;;;7.80;99.90;;;;;;5039221;28;20180;-88
2022/11/25 05:14:08;;;;;;;72.43;9.23;;;7.80;99.90;;;;;;5042148;28;20192;-88
2022/11/25 05:16:34;;;;;;;76.37;10.03;;;7.80;99.90;;;;;;5042817;28;20259;-88
2022/11/25 05:19:00;;;;;;;74.30;9.13;;;7.80;99.90;;;;;;5041872;28;20174;-88
2022/11/25 05:21:26;;;;;;;77.63;11.63;;;7.90;99.90;;;;;;5043096;28;20451;-88
2022/11/25 05:23:54;;;;;;;74.40;9.32;;;7.90;99.90;;;;;;5042508;28;20170;-88
2022/11/25 05:26:20;;;;;;;75.80;8.35;;;7.90;99.90;;;;;;5042399;28;20524;-88
2022/11/25 05:28:45;;;;;;;73.97;9.17;;;7.80;99.90;;;;;;5043275;28;20217;-88
2022/11/25 05:31:11;;;;;;;79.57;9.60;;;7.80;99.90;;;;;;5042309;28;20188;-88
2022/11/25 05:33:37;;;;;;;76.87;9.07;;;7.80;99.90;;;;;;5042397;28;20516;-87
2022/11/25 05:36:03;;;;;;;76.80;8.90;;;7.80;99.90;;;;;;5041710;28;20408;-87
2022/11/25 05:38:30;;;;;;;75.18;9.48;;;7.80;99.90;;;;;;5042204;28;20440;-88
2022/11/25 05:41:06;;;;;;;76.00;11.00;;;7.80;99.90;;;;;;5042616;28;20543;-88
2022/11/25 05:43:32;;;;;;;75.68;9.52;;;7.80;99.90;;;;;;5041979;28;20573;-88
2022/11/25 05:45:58;;;;;;;72.50;9.88;;;7.80;99.90;;;;;;5041965;28;20252;-88
2022/11/25 05:48:30;;;;;;;73.30;10.82;;;7.80;99.90;;;;;;5114677;22;20228;-89
2022/11/25 05:50:59;;;;;;;74.47;9.98;;;7.80;99.90;;;;;;5201261;22;20263;-87
2022/11/25 05:53:37;;;;;;;74.57;10.68;;;7.80;99.90;;;;;;5034620;28;20168;-87
2022/11/25 05:56:32;;;;;;;75.85;11.05;;;7.80;99.90;;;;;;5034229;28;20195;-87
2022/11/25 05:59:29;;;;;;;72.20;11.13;;;7.80;99.90;;;;;;5036476;28;20177;-87
2022/11/25 06:02:03;;;;;;;89.00;11.73;;;7.80;99.90;;;;;;5000665;28;20202;-87
2022/11/25 06:04:32;;;;;;;75.53;9.82;;;7.80;99.90;;;;;;5014556;28;20161;-87
2022/11/25 06:07:07;;;;;;;78.57;11.43;;;7.80;99.90;;;;;;5014594;28;20639;-87
2022/11/25 06:09:45;;;;;;;80.40;11.07;;;7.80;99.90;;;;;;5016263;28;20186;-87
2022/11/25 06:12:16;;;;;;;73.63;8.43;;;7.80;99.90;;;;;;5014271;28;20169;-87
2022/11/25 06:14:44;;;;;;;78.35;9.73;;;7.80;99.90;;;;;;5014422;28;20547;-87
2022/11/25 06:17:10;;;;;;;80.18;9.60;;;7.80;99.90;;;;;;5014391;28;20169;-87
2022/11/25 06:19:39;;;;;;;80.03;10.47;;;7.80;99.90;;;;;;5013965;28;20248;-87
2022/11/25 06:22:08;;;;;;;76.50;11.85;;;7.80;99.90;;;;;;5014003;28;20440;-87
2022/11/25 06:25:11;;;;;;;81.05;11.00;;;7.80;99.90;;;;;;5013012;28;20182;-87
2022/11/25 06:27:40;;;;;;;83.32;10.60;;;7.80;99.90;;;;;;5013983;28;20162;-87
2022/11/25 06:30:11;;;;;;;79.25;10.40;;;7.80;99.90;;;;;;5014257;28;20186;-87
2022/11/25 06:32:37;;;;;;;70.18;9.32;;;7.80;99.90;;;;;;5015626;28;20151;-87
2022/11/25 06:39:08;;;;;;;73.90;9.10;;;7.80;99.90;;;;;;4958535;28;20411;-89
2022/11/25 06:41:53;;;;;;;;;;;;;;;;;;;;;
2022/11/25 06:44:38;;;;;;;75.05;8.50;;;7.80;99.90;;;;;;5015804;28;20146;-89
2022/11/25 06:50:26;;;;;;;78.63;9.02;;;7.80;99.90;;;;;;5011265;28;20251;-89
2022/11/25 06:53:37;;;;;;;94.78;10.45;;;7.90;99.90;;;;;;5015377;28;20161;-89
2022/11/25 06:56:13;;;;;;;71.13;8.68;;;7.90;99.90;;;;;;5011754;28;20734;-89
2022/11/25 07:02:05;;;;;;;74.40;8.75;;;7.80;99.90;;;;;;5042368;22;20220;-90
2022/11/25 07:04:40;;;;;;;71.22;8.90;;;7.80;99.90;;;;;;5026661;28;20184;-89
2022/11/25 07:07:37;;;;;;;74.85;8.90;;;7.80;99.90;;;;;;5033078;28;20200;-87
2022/11/25 07:10:17;;;;;;;78.85;9.10;;;7.80;99.90;;;;;;5033305;28;20633;-89
2022/11/25 07:13:21;;;;;;;75.97;9.63;;;7.80;99.90;;;;;;5034553;28;20181;-89
2022/11/25 07:15:52;;;;;;;72.82;8.07;;;7.80;99.90;;;;;;5029589;28;20263;-89
2022/11/25 07:18:23;;;;;;;70.72;8.32;;;7.80;99.90;;;;;;5032853;28;20165;-89
2022/11/25 07:20:51;;;;;;;78.53;8.95;;;7.70;99.90;;;;;;5032956;28;20205;-89
2022/11/25 07:23:20;;;;;;;75.03;9.70;;;7.70;99.90;;;;;;5034045;28;20170;-89
2022/11/25 07:26:12;;;;;;;72.65;9.68;;;7.60;99.90;;;;;;5034156;28;20161;-90
2022/11/25 07:29:24;;;;;;;71.15;9.40;;;7.60;99.90;;;;;;5032801;28;20165;-89
2022/11/25 07:32:09;;;;;;;79.95;10.73;;;7.60;99.90;;;;;;5026887;28;20199;-89
2022/11/25 07:38:37;;;;;;;74.43;10.63;;;7.60;99.90;;;;;;5017877;28;20265;-89
2022/11/25 07:58:07;;;;;;;69.50;9.90;;;7.20;99.90;;;;;;4992465;28;20177;-88
2022/11/25 08:00:32;;;;;;;69.07;8.73;;;7.30;99.90;;;;;;5025733;28;20582;-88
2022/11/25 08:02:58;;;;;;;73.20;9.33;;;7.30;99.90;;;;;;5035236;28;20161;-88
2022/11/25 08:05:27;;;;;;;77.45;9.73;;;7.40;99.90;;;;;;5035007;28;20169;-88
2022/11/25 08:07:53;;;;;;;68.78;7.55;;;7.50;99.90;;;;;;5033390;28;20165;-89
2022/11/25 08:10:19;;;;;;;70.40;8.50;;;7.60;99.90;;;;;;5034562;28;20263;-88
2022/11/25 08:12:44;;;;;;;69.20;9.00;;;7.60;99.90;;;;;;5033911;28;20252;-88
2022/11/25 08:16:05;;;;;;;69.63;8.83;;;7.60;99.90;;;;;;5035536;28;20534;-87
2022/11/25 11:16:59;;;;;;;;;;;;;;;;;;;;;
2022/11/25 11:25:26;;;;;;;78.25;8.93;;;11.50;99.90;;;;;;3287431;22;20299;-87
2022/11/25 12:03:57;;;;;;;78.40;7.20;;;11.50;99.90;;;;;;4103003;22;20242;-87
2022/11/25 12:07:06;;;;;;;72.85;7.13;;;11.50;99.90;;;;;;5034197;28;20160;-87
2022/11/25 12:10:37;;;;;;;;;;;;;;;;;;;;;
2022/11/25 12:13:56;;;;;;;;;;;;;;;;;;;;;
2022/11/25 12:16:40;;;;;;;78.90;6.20;;;11.60;99.90;;;;;;5035604;28;20181;-87
2022/11/25 12:19:46;;;;;;;68.22;5.50;;;11.60;99.90;;;;;;5033370;28;20172;-87
2022/11/25 12:26:19;;;;;;;69.53;5.55;;;11.60;99.90;;;;;;4991855;28;20162;-87
2022/11/25 12:32:25;;;;;;;73.82;5.57;;;11.60;99.90;;;;;;5068785;22;20221;-87
2022/11/25 12:43:04;;;;;;;71.82;6.05;;;11.60;99.90;;;;;;4948039;29;20208;-87
2022/11/25 12:46:13;;;;;;;66.65;5.18;;;11.50;99.90;;;;;;4934639;29;20272;-86
2022/11/25 12:49:06;;;;;;;68.72;5.10;;;11.50;99.90;;;;;;4982257;28;20220;-87
2022/11/25 12:55:27;;;;;;;75.70;5.20;;;11.60;99.90;;;;;;5002250;28;20178;-87
2022/11/25 12:58:52;;;;;;;;;;;;;;;;;;;;;
2022/11/25 13:02:41;;;;;;;74.57;5.25;;;11.80;99.90;;;;;;4999735;28;20217;-87
2022/11/25 13:05:29;;;;;;;71.75;6.07;;;11.80;99.90;;;;;;5012929;28;20248;-86
2022/11/25 13:08:11;;;;;;;76.70;5.40;;;11.80;99.90;;;;;;4975174;28;20596;-87
2022/11/25 13:11:22;;;;;;;;;;;;;;;;;;;;;
2022/11/25 13:17:53;;;;;;;71.18;5.45;;;12.00;99.90;;;;;;5008755;28;20185;-88
2022/11/25 13:21:26;;;;;;;;;;;;;;;;;;;;;
2022/11/25 13:28:42;;;;;;;71.28;5.45;;;11.80;99.90;;;;;;5012199;28;20185;-87
2022/11/25 13:34:22;;;;;;;;;;;;;;;;;;;;;
2022/11/25 13:51:28;;;;;;;68.07;5.00;;;11.60;99.90;;;;;;5363841;22;20959;-87
2022/11/25 13:54:50;;;;;;;;;;;;;;;;;;;;;
2022/11/25 13:57:54;;;;;;;77.05;6.53;;;11.50;99.90;;;;;;5011779;28;20184;-87
2022/11/25 14:04:28;;;;;;;69.60;4.82;;;11.40;99.90;;;;;;5035811;28;20168;-88
2022/11/25 14:14:57;;;;;;;72.20;5.45;;;11.30;99.90;;;;;;4935893;29;20228;-87
2022/11/25 14:18:06;;;;;;;79.60;5.70;;;11.20;99.90;;;;;;4879171;29;20715;-88
2022/11/25 14:25:13;;;;;;;78.35;7.28;;;11.10;99.90;;;;;;4844590;29;20184;-87
2022/11/25 14:31:49;;;;;;;;;;;;;;;;;;;;;
2022/11/25 14:52:34;;;;;;;75.50;6.35;;;11.20;99.90;;;;;;4823251;29;20290;-88
2022/11/25 14:59:24;;;;;;;;;;;;;;;;;;;;;
2022/11/25 15:13:33;;;;;;;;;;;;;;;;;;;;;
2022/11/25 16:38:58;;;;;;;76.30;8.75;;;10.20;99.90;;;;;;4742500;26;20216;-87
2022/11/25 16:59:47;;;;;;;73.80;6.22;;;10.30;99.90;;;;;;4918566;29;20166;-87
2022/11/25 17:06:43;;;;;;;;;;;;;;;;;;;;;
2022/11/25 17:09:43;;;;;;;77.93;6.75;;;10.20;99.90;;;;;;4951820;28;20195;-86
2022/11/25 17:12:50;;;;;;;69.20;6.20;;;10.20;99.90;;;;;;4997592;28;20230;-87
2022/11/25 17:22:17;;;;;;;80.75;7.32;;;10.30;99.90;;;;;;5058041;28;20191;-88
2022/11/25 17:25:16;;;;;;;77.13;7.32;;;10.30;99.90;;;;;;5057119;28;20503;-88
2022/11/25 17:28:40;;;;;;;69.95;6.30;;;10.30;99.90;;;;;;5055728;28;20550;-87
2022/11/25 17:31:36;;;;;;;75.22;8.10;;;10.30;99.90;;;;;;5054786;28;20196;-88
2022/11/25 17:34:35;;;;;;;72.57;6.95;;;10.30;99.90;;;;;;5058191;28;20165;-88
2022/11/25 17:40:20;;;;;;;83.22;6.60;;;10.30;99.90;;;;;;5051438;28;20672;-87
2022/11/25 17:43:37;;;;;;;70.80;6.90;;;10.20;99.90;;;;;;5041263;28;20204;-88
2022/11/25 17:46:59;;;;;;;70.38;7.20;;;10.10;99.90;;;;;;5020292;28;20672;-87
2022/11/25 17:49:24;;;;;;;69.90;6.43;;;10.10;99.90;;;;;;5322210;22;20225;-85
2022/11/25 17:51:50;;;;;;;69.43;5.33;;;10.00;99.90;;;;;;5046189;28;20244;-83
2022/11/25 17:54:16;;;;;;;74.30;7.47;;;10.00;99.90;;;;;;5038454;28;20169;-84
2022/11/25 17:56:46;;;;;;;82.50;7.30;;;10.00;99.90;;;;;;5037157;28;20419;-83
2022/11/25 17:59:22;;;;;;;70.85;8.05;;;10.00;99.90;;;;;;5038782;28;20454;-84
2022/11/25 18:01:47;;;;;;;77.05;7.00;;;10.00;99.90;;;;;;5039187;28;20184;-84
2022/11/25 18:04:24;;;;;;;77.20;7.40;;;9.90;99.90;;;;;;5038435;28;20634;-84
2022/11/25 18:06:50;;;;;;;69.15;7.53;;;10.00;99.90;;;;;;5039335;28;20195;-85
2022/11/25 18:09:16;;;;;;;69.40;6.72;;;10.10;99.90;;;;;;5037395;28;20180;-84
2022/11/25 18:11:49;;;;;;;69.60;6.95;;;10.10;99.90;;;;;;5037293;28;20166;-85
2022/11/25 18:14:26;;;;;;;75.05;7.63;;;10.10;99.90;;;;;;5037581;28;20161;-84
2022/11/25 18:16:53;;;;;;;76.10;8.20;;;10.10;99.90;;;;;;5039298;28;20184;-85
2022/11/25 18:19:22;;;;;;;72.20;7.72;;;10.10;99.90;;;;;;5039840;28;20166;-85
2022/11/25 18:21:47;;;;;;;78.13;8.85;;;10.00;99.90;;;;;;5040820;28;20220;-85
2022/11/25 18:24:13;;;;;;;71.33;9.23;;;10.00;99.90;;;;;;5039913;28;20166;-85
2022/11/25 18:26:45;;;;;;;76.20;8.60;;;9.90;99.90;;;;;;5037835;28;20189;-85
2022/11/25 18:29:21;;;;;;;72.50;9.52;;;9.90;99.90;;;;;;5038388;28;20286;-85
2022/11/25 18:31:48;;;;;;;84.38;10.63;;;9.80;99.90;;;;;;5038488;28;20165;-85
2022/11/25 18:34:15;;;;;;;72.40;9.52;;;9.90;99.90;;;;;;5037675;28;20260;-85
2022/11/25 18:36:41;;;;;;;74.53;8.82;;;9.90;99.90;;;;;;5037168;28;20208;-85
2022/11/25 18:39:07;;;;;;;70.43;8.45;;;9.90;99.90;;;;;;5039294;28;20161;-87
2022/11/25 18:41:33;;;;;;;71.70;7.97;;;9.90;99.90;;;;;;5038303;28;20678;-85
2022/11/25 18:44:00;;;;;;;74.97;9.50;;;10.00;99.90;;;;;;5039128;28;20515;-85
2022/11/25 18:46:28;;;;;;;72.43;7.70;;;10.10;99.90;;;;;;5038667;28;20196;-87
2022/11/25 18:48:55;;;;;;;71.25;7.10;;;10.10;99.90;;;;;;5037248;28;20267;-85
2022/11/25 18:51:22;;;;;;;73.70;7.22;;;10.10;99.90;;;;;;5038845;28;20619;-87
2022/11/25 18:53:47;;;;;;;72.00;7.23;;;10.10;99.90;;;;;;5036849;28;20167;-86
2022/11/25 18:56:13;;;;;;;69.97;6.10;;;10.10;99.90;;;;;;5038053;28;20163;-87
2022/11/25 18:58:40;;;;;;;72.43;8.18;;;10.10;99.90;;;;;;5035987;28;20169;-86
2022/11/25 19:01:12;;;;;;;75.53;10.13;;;10.00;99.90;;;;;;5036651;28;20197;-87
2022/11/25 19:03:37;;;;;;;72.18;7.85;;;10.00;99.90;;;;;;5037212;28;20620;-87
2022/11/25 19:06:03;;;;;;;72.73;7.50;;;10.10;99.90;;;;;;5037137;28;20249;-86
2022/11/25 19:08:29;;;;;;;73.03;9.27;;;10.10;99.90;;;;;;5036571;28;20165;-86
2022/11/25 19:10:55;;;;;;;75.30;7.00;;;10.10;99.90;;;;;;5036733;28;20479;-86
2022/11/25 19:13:31;;;;;;;72.80;6.97;;;10.00;99.90;;;;;;5037154;28;20165;-87
2022/11/25 19:16:04;;;;;;;77.80;7.90;;;9.90;99.90;;;;;;5036570;28;20892;-86
2022/11/25 19:18:30;;;;;;;75.50;7.25;;;9.80;99.90;;;;;;5035919;28;20180;-86
2022/11/25 19:20:56;;;;;;;76.45;7.13;;;9.70;99.90;;;;;;5037300;28;20260;-86
2022/11/25 19:23:24;;;;;;;81.37;9.07;;;9.60;99.90;;;;;;5036113;28;20566;-86
2022/11/25 19:25:52;;;;;;;71.20;8.30;;;9.60;99.90;;;;;;5036185;28;20165;-86
2022/11/25 19:28:19;;;;;;;68.05;6.85;;;9.50;99.90;;;;;;5036028;28;20634;-86
2022/11/25 19:30:46;;;;;;;75.30;8.40;;;9.40;99.90;;;;;;5036833;28;20185;-86
2022/11/25 19:33:24;;;;;;;73.20;7.70;;;9.30;99.90;;;;;;5036413;28;20578;-87
2022/11/25 19:35:50;;;;;;;77.57;8.45;;;9.30;99.90;;;;;;5036784;28;20169;-86
2022/11/25 19:38:20;;;;;;;71.37;8.87;;;9.20;99.90;;;;;;5037342;28;20279;-87
2022/11/25 19:40:46;;;;;;;69.18;8.60;;;9.10;99.90;;;;;;5036084;28;20490;-86
2022/11/25 19:43:13;;;;;;;68.95;9.57;;;9.10;99.90;;;;;;5036858;28;20192;-86
2022/11/25 19:45:39;;;;;;;71.43;8.68;;;9.00;99.90;;;;;;5037282;28;20212;-86
2022/11/25 19:48:10;;;;;;;73.82;9.75;;;8.90;99.90;;;;;;5036809;28;20185;-86
2022/11/25 19:50:37;;;;;;;73.32;9.05;;;8.90;99.90;;;;;;5036786;28;20265;-86
2022/11/25 19:53:04;;;;;;;74.95;8.05;;;8.90;99.90;;;;;;5035762;28;20169;-86
2022/11/25 19:55:31;;;;;;;72.55;9.43;;;8.90;99.90;;;;;;5036826;28;20165;-87
2022/11/25 19:57:57;;;;;;;75.40;9.60;;;9.00;99.90;;;;;;5037173;28;20211;-86
2022/11/25 20:00:23;;;;;;;71.83;8.70;;;9.20;99.90;;;;;;5036776;28;20650;-86
2022/11/25 20:02:52;;;;;;;69.97;7.95;;;9.20;99.90;;;;;;5037197;28;20455;-86
2022/11/25 20:05:33;;;;;;;71.30;8.38;;;9.30;99.90;;;;;;5036760;28;20172;-87
2022/11/25 20:08:00;;;;;;;79.65;9.75;;;9.20;99.90;;;;;;5036692;28;20227;-86
2022/11/25 20:10:29;;;;;;;70.95;8.25;;;9.20;99.90;;;;;;5037266;28;20204;-86
2022/11/25 20:12:55;;;;;;;71.15;7.82;;;9.30;99.90;;;;;;5036716;28;20173;-87
2022/11/25 20:15:22;;;;;;;74.00;8.75;;;9.20;99.90;;;;;;5037293;28;20622;-87
2022/11/25 20:17:51;;;;;;;77.75;10.85;;;9.20;99.90;;;;;;5037989;28;20165;-86
2022/11/25 20:20:26;;;;;;;83.10;9.70;;;9.10;99.90;;;;;;5035391;28;20189;-86
2022/11/25 20:23:03;;;;;;;83.25;9.30;;;9.20;99.90;;;;;;5036449;28;20203;-86
2022/11/25 20:25:29;;;;;;;73.50;9.23;;;9.20;99.90;;;;;;5037291;28;20149;-87
2022/11/25 20:27:56;;;;;;;76.70;8.85;;;9.20;99.90;;;;;;5035526;28;20165;-86
2022/11/25 20:30:24;;;;;;;72.07;9.70;;;9.20;99.90;;;;;;5035092;28;20243;-86
2022/11/25 20:32:50;;;;;;;69.68;8.35;;;9.20;99.90;;;;;;5035347;28;20169;-86
2022/11/25 20:35:17;;;;;;;72.85;7.50;;;9.20;99.90;;;;;;5037668;28;20200;-86
2022/11/25 20:37:59;;;;;;;79.57;9.10;;;9.20;99.90;;;;;;5035867;28;20256;-86
2022/11/25 20:40:34;;;;;;;79.28;9.07;;;9.10;99.90;;;;;;5034012;28;20239;-85
2022/11/25 20:42:59;;;;;;;80.47;9.65;;;9.10;99.90;;;;;;5037358;28;20172;-85
2022/11/25 20:45:25;;;;;;;74.10;9.00;;;9.10;99.90;;;;;;5041824;28;20248;-86
2022/11/25 20:47:51;;;;;;;75.00;8.90;;;9.10;99.90;;;;;;5040083;28;20913;-86
2022/11/25 20:50:19;;;;;;;81.10;9.85;;;9.10;99.90;;;;;;5038929;28;20196;-87
2022/11/25 20:52:47;;;;;;;86.45;9.45;;;9.10;99.90;;;;;;5040799;28;20622;-86
2022/11/25 20:55:22;;;;;;;73.50;8.73;;;9.10;99.90;;;;;;5038519;28;20165;-87
2022/11/25 20:57:49;;;;;;;75.30;8.15;;;9.10;99.90;;;;;;5039215;28;20573;-87
2022/11/25 21:00:20;;;;;;;76.22;8.93;;;9.00;99.90;;;;;;5039959;28;20188;-87
2022/11/25 21:02:46;;;;;;;75.10;8.27;;;9.00;99.90;;;;;;5039649;28;20666;-86
2022/11/25 21:05:12;;;;;;;79.07;10.10;;;8.90;99.90;;;;;;5040201;28;20219;-86
2022/11/25 21:07:38;;;;;;;73.70;10.00;;;8.90;99.90;;;;;;5039654;28;20404;-87
2022/11/25 21:10:26;;;;;;;79.55;9.82;;;8.90;99.90;;;;;;5040283;28;20497;-86
2022/11/25 21:12:52;;;;;;;78.88;8.52;;;8.90;99.90;;;;;;5039727;28;20530;-86
2022/11/25 21:15:24;;;;;;;71.63;9.20;;;8.90;99.90;;;;;;5039976;28;20581;-87
2022/11/25 21:17:50;;;;;;;79.53;9.55;;;8.90;99.90;;;;;;5039089;28;20173;-87
2022/11/25 21:20:18;;;;;;;79.88;10.95;;;8.90;99.90;;;;;;5038745;28;20199;-87
2022/11/25 21:22:47;;;;;;;74.35;9.27;;;8.80;99.90;;;;;;5038914;28;20216;-86